Time;durP1;ratioP1;P1;durP2;ratioP2;P2;SDS_P1;SDS_P2;PMS_P1;PMS_P2;Temp;Humidity;BMP_temperature;BMP_pressure;BME280_temperature;BME280_humidity;BME280_pressure;Samples;Min_cycle;Max_cycle;Signal;HPM_P1;HPM_P2
2023/04/27 00:01:56;;;;;;;18.20;8.60;;;4.00;99.90;;;;;;4936451;29;20205;-82
2023/04/27 00:04:23;;;;;;;15.60;8.27;;;4.00;99.90;;;;;;4920434;29;20200;-83
2023/04/27 00:06:51;;;;;;;16.90;8.80;;;4.10;99.90;;;;;;4920226;29;20210;-84
2023/04/27 00:09:19;;;;;;;19.03;8.53;;;3.90;99.90;;;;;;4920276;29;20212;-82
2023/04/27 00:11:47;;;;;;;15.80;8.37;;;4.00;99.90;;;;;;4903326;29;20238;-83
2023/04/27 00:14:15;;;;;;;22.07;8.97;;;3.90;99.90;;;;;;4919907;29;20293;-83
2023/04/27 00:16:42;;;;;;;20.00;9.33;;;4.10;99.90;;;;;;4960588;23;20716;-83
2023/04/27 00:19:14;;;;;;;19.27;9.20;;;4.00;99.90;;;;;;4939314;29;20203;-83
2023/04/27 00:21:41;;;;;;;19.03;9.57;;;3.90;99.90;;;;;;4939070;29;20210;-82
2023/04/27 00:24:08;;;;;;;19.83;10.47;;;3.90;99.90;;;;;;4938870;29;20202;-82
2023/04/27 00:26:35;;;;;;;21.07;10.50;;;3.80;99.90;;;;;;4939156;29;20199;-81
2023/04/27 00:29:02;;;;;;;19.50;10.33;;;3.90;99.90;;;;;;4956505;29;20658;-81
2023/04/27 00:31:29;;;;;;;19.57;10.27;;;3.80;99.90;;;;;;4939417;29;20231;-82
2023/04/27 00:34:09;;;;;;;25.60;11.53;;;3.80;99.90;;;;;;4956862;29;20237;-82
2023/04/27 00:36:36;;;;;;;22.90;11.30;;;3.70;99.90;;;;;;4939342;29;20746;-82
2023/04/27 00:39:05;;;;;;;22.97;11.87;;;3.70;99.90;;;;;;4938368;29;20195;-81
2023/04/27 00:41:32;;;;;;;21.60;11.57;;;3.70;99.90;;;;;;4938461;29;20210;-81
2023/04/27 00:43:58;;;;;;;23.20;11.27;;;3.70;99.90;;;;;;4939410;29;20195;-80
2023/04/27 00:46:26;;;;;;;20.27;11.83;;;3.70;99.90;;;;;;4956131;29;20211;-83
2023/04/27 00:48:55;;;;;;;24.10;12.20;;;3.70;99.90;;;;;;4956214;29;20725;-79
2023/04/27 00:51:26;;;;;;;24.37;11.47;;;3.70;99.90;;;;;;4955668;29;20218;-80
2023/04/27 00:53:53;;;;;;;19.37;11.53;;;3.60;99.90;;;;;;4938598;29;20217;-81
2023/04/27 00:56:21;;;;;;;25.37;11.77;;;3.60;99.90;;;;;;4938314;29;20200;-81
2023/04/27 00:58:48;;;;;;;23.33;11.67;;;3.50;99.90;;;;;;4938306;29;20194;-80
2023/04/27 01:01:19;;;;;;;24.63;12.20;;;3.50;99.90;;;;;;4955366;29;20293;-80
2023/04/27 01:03:46;;;;;;;21.87;11.53;;;3.50;99.90;;;;;;4955200;29;20195;-81
2023/04/27 01:06:14;;;;;;;25.60;12.87;;;3.50;99.90;;;;;;4937949;29;20676;-81
2023/04/27 01:08:41;;;;;;;24.03;12.80;;;3.40;99.90;;;;;;4937716;29;20263;-78
2023/04/27 01:11:08;;;;;;;25.80;13.83;;;3.50;99.90;;;;;;4938547;29;20247;-81
2023/04/27 01:13:35;;;;;;;23.83;13.57;;;3.50;99.90;;;;;;4922059;29;20216;-80
2023/04/27 01:16:02;;;;;;;29.67;14.00;;;3.40;99.90;;;;;;4918871;29;20230;-81
2023/04/27 01:18:28;;;;;;;25.13;13.63;;;3.40;99.90;;;;;;4934650;29;20202;-77
2023/04/27 01:20:55;;;;;;;28.07;13.57;;;3.40;99.90;;;;;;4936319;29;20211;-80
2023/04/27 01:23:22;;;;;;;25.63;13.53;;;3.40;99.90;;;;;;4934518;29;20640;-80
2023/04/27 01:25:49;;;;;;;25.53;13.43;;;3.30;99.90;;;;;;4936062;29;20673;-81
2023/04/27 01:28:16;;;;;;;27.50;14.37;;;3.30;99.90;;;;;;4935005;29;20221;-81
2023/04/27 01:30:44;;;;;;;30.10;13.17;;;3.20;99.90;;;;;;4935681;29;20633;-81
2023/04/27 01:33:11;;;;;;;27.07;12.73;;;3.30;99.90;;;;;;4934763;29;20213;-78
2023/04/27 01:35:38;;;;;;;23.03;12.53;;;3.30;99.90;;;;;;4935490;29;20218;-80
2023/04/27 01:38:05;;;;;;;24.27;11.60;;;3.30;99.90;;;;;;4934467;29;20306;-76
2023/04/27 01:40:32;;;;;;;26.43;12.37;;;3.20;99.90;;;;;;4935571;29;20275;-83
2023/04/27 01:42:59;;;;;;;22.50;11.80;;;3.20;99.90;;;;;;4934189;29;20211;-83
2023/04/27 01:45:26;;;;;;;21.13;11.47;;;3.20;99.90;;;;;;4935826;29;20727;-83
2023/04/27 01:47:53;;;;;;;20.60;10.60;;;3.10;99.90;;;;;;4935185;29;20199;-82
2023/04/27 01:50:20;;;;;;;18.63;9.90;;;3.20;99.90;;;;;;4935565;29;20237;-83
2023/04/27 01:52:47;;;;;;;20.90;10.27;;;3.20;99.90;;;;;;4933817;29;20327;-81
2023/04/27 01:55:14;;;;;;;20.90;10.70;;;3.10;99.90;;;;;;4934206;29;20592;-82
2023/04/27 01:57:41;;;;;;;21.03;10.10;;;3.20;99.90;;;;;;4933105;29;20574;-82
2023/04/27 02:00:09;;;;;;;22.43;10.57;;;3.10;99.90;;;;;;4934361;29;20199;-84
2023/04/27 02:02:36;;;;;;;20.50;10.20;;;3.10;99.90;;;;;;4933770;29;20255;-84
2023/04/27 02:05:03;;;;;;;18.23;10.03;;;3.10;99.90;;;;;;4933769;29;20199;-79
2023/04/27 02:07:31;;;;;;;19.30;9.47;;;3.00;99.90;;;;;;4934809;29;20221;-83
2023/04/27 02:09:57;;;;;;;22.80;10.10;;;3.00;99.90;;;;;;4934903;29;20202;-82
2023/04/27 02:12:24;;;;;;;17.97;9.87;;;3.00;99.90;;;;;;4933863;29;20226;-83
2023/04/27 02:14:51;;;;;;;18.07;9.83;;;3.00;99.90;;;;;;4918901;29;20205;-82
2023/04/27 02:17:18;;;;;;;19.97;9.63;;;3.00;99.90;;;;;;4973475;23;20245;-83
2023/04/27 02:19:59;;;;;;;21.43;9.60;;;2.90;99.90;;;;;;4913663;29;20215;-83
2023/04/27 02:22:26;;;;;;;19.77;9.50;;;2.90;99.90;;;;;;4914059;29;20194;-82
2023/04/27 02:24:53;;;;;;;20.13;9.93;;;2.90;99.90;;;;;;4897757;29;20207;-82
2023/04/27 02:27:20;;;;;;;21.30;10.10;;;2.90;99.90;;;;;;4913588;29;20207;-83
2023/04/27 02:29:47;;;;;;;19.17;9.63;;;2.80;99.90;;;;;;4913617;29;20216;-83
2023/04/27 02:32:14;;;;;;;20.50;9.60;;;2.90;99.90;;;;;;4897578;29;20255;-82
2023/04/27 02:34:41;;;;;;;18.90;10.10;;;2.80;99.90;;;;;;4913369;29;20660;-76
2023/04/27 02:37:08;;;;;;;20.57;9.10;;;2.80;99.90;;;;;;4909676;29;20800;-79
2023/04/27 02:39:34;;;;;;;22.80;9.50;;;2.80;99.90;;;;;;4894322;29;20248;-80
2023/04/27 02:42:02;;;;;;;18.13;9.00;;;2.90;99.90;;;;;;4894602;29;20208;-75
2023/04/27 02:44:29;;;;;;;16.10;9.10;;;2.70;99.90;;;;;;4894257;29;20284;-81
2023/04/27 02:46:56;;;;;;;17.00;9.07;;;2.70;99.90;;;;;;4894129;29;20204;-75
2023/04/27 02:49:23;;;;;;;17.37;9.03;;;2.80;99.90;;;;;;4878669;29;20377;-75
2023/04/27 02:51:49;;;;;;;17.03;9.00;;;2.80;99.90;;;;;;4947777;29;20233;-81
2023/04/27 02:54:16;;;;;;;17.97;8.83;;;2.80;99.90;;;;;;4952074;29;20199;-79
2023/04/27 02:56:43;;;;;;;17.23;8.30;;;2.80;99.90;;;;;;4952208;29;20199;-75
2023/04/27 02:59:10;;;;;;;15.97;8.87;;;2.80;99.90;;;;;;4953568;29;20645;-81
2023/04/27 03:01:37;;;;;;;15.83;8.70;;;2.80;99.90;;;;;;4952228;29;20200;-81
2023/04/27 03:04:04;;;;;;;20.30;8.50;;;2.80;99.90;;;;;;4952164;29;20213;-79
2023/04/27 03:06:31;;;;;;;15.50;8.37;;;2.80;99.90;;;;;;4952034;29;20202;-81
2023/04/27 03:08:58;;;;;;;16.67;8.13;;;2.80;99.90;;;;;;4953609;29;20668;-77
2023/04/27 03:11:25;;;;;;;17.80;8.93;;;2.70;99.90;;;;;;4953169;29;20217;-79
2023/04/27 03:13:52;;;;;;;15.83;8.03;;;2.70;99.90;;;;;;4936362;29;20754;-79
2023/04/27 03:16:19;;;;;;;16.40;9.00;;;2.70;99.90;;;;;;4932547;29;20247;-79
2023/04/27 03:18:47;;;;;;;18.43;8.70;;;2.70;99.90;;;;;;4948597;29;20645;-78
2023/04/27 03:21:15;;;;;;;17.23;8.77;;;2.70;99.90;;;;;;4916739;29;20297;-77
2023/04/27 03:23:42;;;;;;;17.77;8.53;;;2.70;99.90;;;;;;4932672;29;20215;-77
2023/04/27 03:26:12;;;;;;;22.53;9.03;;;2.70;99.90;;;;;;4948624;29;20242;-83
2023/04/27 03:28:39;;;;;;;20.53;8.97;;;2.70;99.90;;;;;;4933974;29;20232;-78
2023/04/27 03:31:08;;;;;;;17.30;9.30;;;2.70;99.90;;;;;;4934100;29;20199;-82
2023/04/27 03:33:35;;;;;;;23.17;9.17;;;2.60;99.90;;;;;;4933022;29;20200;-83
2023/04/27 03:36:03;;;;;;;19.97;9.03;;;2.70;99.90;;;;;;4932720;29;20226;-80
2023/04/27 03:38:30;;;;;;;20.00;9.17;;;2.70;99.90;;;;;;4933935;29;20214;-83
2023/04/27 03:40:57;;;;;;;21.57;8.53;;;2.80;99.90;;;;;;4932600;29;20576;-81
2023/04/27 03:43:26;;;;;;;16.70;9.20;;;2.70;99.90;;;;;;4949109;29;20667;-81
2023/04/27 03:45:53;;;;;;;15.77;8.57;;;2.80;99.90;;;;;;4932978;29;20216;-81
2023/04/27 03:48:20;;;;;;;23.43;9.10;;;2.80;99.90;;;;;;4936435;29;20323;-81
2023/04/27 03:50:47;;;;;;;20.50;9.37;;;2.80;99.90;;;;;;4937811;29;20257;-81
2023/04/27 03:53:14;;;;;;;18.30;8.53;;;2.80;99.90;;;;;;4952458;29;20223;-81
2023/04/27 03:55:43;;;;;;;20.10;9.67;;;2.90;99.90;;;;;;4952658;29;20195;-81
2023/04/27 03:58:10;;;;;;;21.33;10.00;;;2.90;99.90;;;;;;4937046;29;20194;-81
2023/04/27 04:00:38;;;;;;;19.53;9.33;;;2.90;99.90;;;;;;4920589;29;20221;-82
2023/04/27 04:03:06;;;;;;;15.80;8.70;;;2.90;99.90;;;;;;4936292;29;20222;-80
2023/04/27 04:05:33;;;;;;;15.70;8.53;;;2.90;99.90;;;;;;4936481;29;20262;-81
2023/04/27 04:08:00;;;;;;;18.60;8.50;;;2.80;99.90;;;;;;4936128;29;20187;-80
2023/04/27 04:10:27;;;;;;;18.33;9.00;;;2.80;99.90;;;;;;4952021;29;20214;-81
2023/04/27 04:12:54;;;;;;;14.80;8.17;;;2.80;99.90;;;;;;4951911;29;20337;-81
2023/04/27 04:15:21;;;;;;;16.63;8.77;;;2.80;99.90;;;;;;4936072;29;20214;-81
2023/04/27 04:17:48;;;;;;;16.23;8.60;;;2.90;99.90;;;;;;4937109;29;20298;-79
2023/04/27 04:20:15;;;;;;;18.20;9.17;;;2.90;99.90;;;;;;4945596;29;20204;-80
2023/04/27 04:22:43;;;;;;;17.80;9.17;;;2.90;99.90;;;;;;4946809;29;20203;-81
2023/04/27 04:25:10;;;;;;;16.33;9.20;;;2.80;99.90;;;;;;4929152;29;20676;-79
2023/04/27 04:27:37;;;;;;;13.90;8.67;;;2.80;99.90;;;;;;4945783;29;20199;-81
2023/04/27 04:30:05;;;;;;;16.53;8.90;;;2.90;99.90;;;;;;4960869;29;20210;-81
2023/04/27 04:32:36;;;;;;;20.87;8.83;;;2.90;99.90;;;;;;4942869;29;20295;-80
2023/04/27 04:35:07;;;;;;;18.00;8.90;;;3.00;99.90;;;;;;4942753;29;20199;-81
2023/04/27 04:37:34;;;;;;;16.80;8.70;;;3.10;99.90;;;;;;4956125;29;20227;-80
2023/04/27 04:40:11;;;;;;;23.67;9.20;;;3.20;99.90;;;;;;4952752;29;20201;-80
2023/04/27 04:42:38;;;;;;;17.47;8.77;;;3.20;99.90;;;;;;4937085;29;20202;-81
2023/04/27 04:45:06;;;;;;;15.17;8.67;;;3.30;99.90;;;;;;4938606;29;20199;-80
2023/04/27 04:47:33;;;;;;;19.40;9.23;;;3.40;99.90;;;;;;4943300;29;20236;-80
2023/04/27 04:50:00;;;;;;;21.60;9.57;;;3.40;99.90;;;;;;4941874;29;20297;-81
2023/04/27 04:52:27;;;;;;;18.60;8.50;;;3.50;99.90;;;;;;4958629;29;20230;-79
2023/04/27 04:54:54;;;;;;;18.17;9.13;;;3.60;99.90;;;;;;4934880;29;20290;-82
2023/04/27 04:57:21;;;;;;;20.00;9.03;;;3.60;99.90;;;;;;4935937;29;20227;-82
2023/04/27 04:59:48;;;;;;;17.23;8.30;;;3.60;99.90;;;;;;4934012;29;20207;-81
2023/04/27 05:02:15;;;;;;;17.80;8.80;;;3.80;99.90;;;;;;4934658;29;20250;-81
2023/04/27 05:04:42;;;;;;;21.53;9.17;;;3.80;99.90;;;;;;4936228;29;20270;-81
2023/04/27 05:07:10;;;;;;;18.37;9.13;;;3.90;99.90;;;;;;4934621;29;20199;-78
2023/04/27 05:09:40;;;;;;;17.50;8.20;;;3.80;99.90;;;;;;4934179;29;20215;-77
2023/04/27 05:12:07;;;;;;;16.70;8.30;;;3.90;99.90;;;;;;4936279;29;20768;-81
2023/04/27 05:14:34;;;;;;;16.50;8.67;;;4.00;99.90;;;;;;4950394;29;20207;-79
2023/04/27 05:17:02;;;;;;;19.13;8.83;;;4.20;99.90;;;;;;4934325;29;20326;-80
2023/04/27 05:19:30;;;;;;;15.70;8.60;;;4.10;99.90;;;;;;4950547;29;20203;-76
2023/04/27 05:21:57;;;;;;;17.83;8.90;;;4.30;99.90;;;;;;4918613;29;20296;-81
2023/04/27 05:24:25;;;;;;;19.27;9.10;;;4.30;99.90;;;;;;4934695;29;20637;-74
2023/04/27 05:26:52;;;;;;;23.10;9.00;;;4.40;99.90;;;;;;4934178;29;20203;-77
2023/04/27 05:29:21;;;;;;;17.87;9.40;;;4.40;99.90;;;;;;4950210;29;20298;-76
2023/04/27 05:31:48;;;;;;;18.23;8.80;;;4.50;99.90;;;;;;4950223;29;20208;-80
2023/04/27 05:34:15;;;;;;;23.57;10.00;;;4.70;99.90;;;;;;4934434;29;20203;-80
2023/04/27 05:36:42;;;;;;;19.73;9.77;;;4.70;99.90;;;;;;4935155;29;20213;-83
2023/04/27 05:39:09;;;;;;;18.77;9.80;;;4.80;99.90;;;;;;4934028;29;20730;-77
2023/04/27 05:41:36;;;;;;;16.17;9.03;;;4.90;99.90;;;;;;4935351;29;20191;-79
2023/04/27 05:44:03;;;;;;;22.23;10.07;;;4.90;99.90;;;;;;4933824;29;20228;-82
2023/04/27 05:46:30;;;;;;;18.03;9.10;;;5.00;99.90;;;;;;4934420;29;20211;-83
2023/04/27 05:48:57;;;;;;;22.73;9.20;;;5.10;99.90;;;;;;4934442;29;20224;-80
2023/04/27 05:51:24;;;;;;;19.13;9.33;;;5.10;99.90;;;;;;4934241;29;20230;-81
2023/04/27 05:53:54;;;;;;;18.43;9.50;;;5.20;99.90;;;;;;4935136;29;20240;-82
2023/04/27 05:56:21;;;;;;;21.03;9.37;;;5.30;99.90;;;;;;4935120;29;20243;-79
2023/04/27 05:58:48;;;;;;;19.03;8.90;;;5.40;99.90;;;;;;4934707;29;20544;-81
2023/04/27 06:01:15;;;;;;;18.17;9.03;;;5.50;99.90;;;;;;4933664;29;20215;-82
2023/04/27 06:03:45;;;;;;;15.47;8.33;;;5.60;99.90;;;;;;4935411;29;20659;-81
2023/04/27 06:06:12;;;;;;;17.77;8.70;;;5.70;99.90;;;;;;4933600;29;20199;-82
2023/04/27 06:08:40;;;;;;;19.50;8.83;;;5.80;99.90;;;;;;4933887;29;20304;-82
2023/04/27 06:11:06;;;;;;;13.83;8.43;;;5.90;99.90;;;;;;4932905;29;20201;-83
2023/04/27 06:13:33;;;;;;;17.73;8.30;;;6.00;99.90;;;;;;4946880;29;20239;-81
2023/04/27 06:16:01;;;;;;;14.90;7.73;;;6.10;99.90;;;;;;4939679;29;20198;-87
2023/04/27 06:18:28;;;;;;;18.40;8.90;;;6.00;99.90;;;;;;4950557;29;20547;-87
2023/04/27 06:21:00;;;;;;;18.27;8.57;;;6.00;99.90;;;;;;4949751;29;20208;-84
2023/04/27 06:23:28;;;;;;;16.03;8.50;;;6.00;99.90;;;;;;4919022;29;20215;-84
2023/04/27 06:25:55;;;;;;;15.43;8.00;;;6.00;99.90;;;;;;4933231;29;20245;-82
2023/04/27 06:28:22;;;;;;;15.80;8.37;;;6.20;99.90;;;;;;4933241;29;20223;-82
2023/04/27 06:30:49;;;;;;;18.87;8.23;;;6.30;99.90;;;;;;4949927;29;20269;-85
2023/04/27 06:33:16;;;;;;;16.87;8.37;;;6.50;99.90;;;;;;4934459;29;20255;-78
2023/04/27 06:35:44;;;;;;;18.60;8.90;;;6.60;99.90;;;;;;4933628;29;20199;-83
2023/04/27 06:38:13;;;;;;;17.17;9.00;;;6.60;99.90;;;;;;4933065;29;20217;-83
2023/04/27 06:40:40;;;;;;;17.97;8.43;;;6.60;99.90;;;;;;4932545;29;20197;-80
2023/04/27 06:43:07;;;;;;;15.20;8.67;;;6.60;99.90;;;;;;4934315;29;20243;-80
2023/04/27 06:45:34;;;;;;;14.47;8.43;;;6.70;99.90;;;;;;4933131;29;20780;-81
2023/04/27 06:48:02;;;;;;;14.83;9.33;;;7.00;99.90;;;;;;4933271;29;20209;-86
2023/04/27 06:50:29;;;;;;;19.03;9.00;;;7.00;99.90;;;;;;4933171;29;20537;-84
2023/04/27 06:52:56;;;;;;;16.27;9.00;;;7.10;99.90;;;;;;4933711;29;20217;-76
2023/04/27 06:55:23;;;;;;;16.53;9.40;;;7.30;99.90;;;;;;4948461;29;20192;-83
2023/04/27 06:57:51;;;;;;;16.63;8.63;;;7.40;99.90;;;;;;4932958;29;20292;-81
2023/04/27 07:00:18;;;;;;;13.73;8.60;;;7.40;99.90;;;;;;4933464;29;20688;-77
2023/04/27 07:02:46;;;;;;;18.33;9.40;;;7.40;99.90;;;;;;4934254;29;20202;-80
2023/04/27 07:05:13;;;;;;;15.67;8.83;;;7.50;99.90;;;;;;4932789;29;20205;-86
2023/04/27 07:07:40;;;;;;;17.50;9.03;;;7.60;99.90;;;;;;4932669;29;20206;-75
2023/04/27 07:10:10;;;;;;;19.07;8.93;;;7.60;99.90;;;;;;4932753;29;20241;-90
2023/04/27 07:12:41;;;;;;;20.13;10.47;;;7.80;99.90;;;;;;4918169;29;20246;-83
2023/04/27 07:15:08;;;;;;;17.57;8.27;;;7.70;99.90;;;;;;4913643;29;20312;-82
2023/04/27 07:17:35;;;;;;;16.60;8.40;;;7.80;99.90;;;;;;4913221;29;20568;-74
2023/04/27 07:20:04;;;;;;;14.57;8.00;;;7.90;99.90;;;;;;4914906;29;20614;-74
2023/04/27 07:22:32;;;;;;;18.27;8.93;;;8.10;99.90;;;;;;4917566;29;20709;-81
2023/04/27 07:24:59;;;;;;;17.20;9.10;;;8.20;99.90;;;;;;4917353;29;20313;-74
2023/04/27 07:27:27;;;;;;;19.47;8.63;;;8.20;99.90;;;;;;4934331;29;20608;-74
2023/04/27 07:29:54;;;;;;;16.23;8.20;;;8.30;99.90;;;;;;4952669;29;20205;-77
2023/04/27 07:32:21;;;;;;;16.57;8.47;;;8.30;99.90;;;;;;4953010;29;20261;-78
2023/04/27 07:34:49;;;;;;;19.23;8.23;;;8.40;99.90;;;;;;4952485;29;20699;-75
2023/04/27 07:37:21;;;;;;;11.73;7.80;;;8.40;99.90;;;;;;4935823;29;20223;-76
2023/04/27 07:39:50;;;;;;;23.40;8.33;;;8.10;99.90;;;;;;4936228;29;20245;-74
2023/04/27 07:42:21;;;;;;;14.70;8.67;;;8.30;99.90;;;;;;4939095;29;20193;-74
2023/04/27 07:44:49;;;;;;;14.13;7.30;;;8.30;99.90;;;;;;4952184;29;20301;-72
2023/04/27 07:47:17;;;;;;;13.23;7.30;;;8.50;99.90;;;;;;4937087;29;20283;-73
2023/04/27 07:49:45;;;;;;;10.97;6.83;;;8.60;99.90;;;;;;4936208;29;20584;-72
2023/04/27 07:52:12;;;;;;;11.63;6.40;;;8.60;99.90;;;;;;4935489;29;20202;-70
2023/04/27 07:54:39;;;;;;;13.47;6.90;;;8.50;99.90;;;;;;4935836;29;20324;-70
2023/04/27 07:57:08;;;;;;;14.37;7.00;;;8.50;99.90;;;;;;4935802;29;20213;-70
2023/04/27 07:59:35;;;;;;;12.50;7.10;;;8.60;99.90;;;;;;4935635;29;20586;-69
2023/04/27 08:02:02;;;;;;;13.70;6.87;;;8.70;99.90;;;;;;4951710;29;20190;-69
2023/04/27 08:04:46;;;;;;;12.23;6.30;;;8.80;99.90;;;;;;4936767;29;20214;-70
2023/04/27 08:07:15;;;;;;;10.83;5.97;;;9.40;99.90;;;;;;4935368;29;20199;-70
2023/04/27 08:09:43;;;;;;;12.73;5.77;;;10.20;99.90;;;;;;4935396;29;20210;-69
2023/04/27 08:12:10;;;;;;;11.67;6.90;;;11.00;99.90;;;;;;4935478;29;20203;-70
2023/04/27 08:14:37;;;;;;;12.07;5.90;;;11.50;99.90;;;;;;4935734;29;20241;-71
2023/04/27 08:17:05;;;;;;;12.43;5.93;;;12.00;99.90;;;;;;4934853;29;20259;-72
2023/04/27 08:19:32;;;;;;;9.30;4.80;;;12.40;99.90;;;;;;4936675;29;20286;-71
2023/04/27 08:21:59;;;;;;;7.90;4.40;;;12.70;99.90;;;;;;4936520;29;20197;-71
2023/04/27 08:24:26;;;;;;;15.47;5.23;;;12.90;99.90;;;;;;4935258;29;20203;-72
2023/04/27 08:26:53;;;;;;;7.57;4.03;;;13.40;99.90;;;;;;4935057;29;20210;-70
2023/04/27 08:29:20;;;;;;;10.70;4.70;;;13.50;99.90;;;;;;4935668;29;20219;-70
2023/04/27 08:31:58;;;;;;;7.43;4.50;;;13.40;99.90;;;;;;4935573;29;20216;-71
2023/04/27 08:34:25;;;;;;;12.53;4.60;;;13.60;99.90;;;;;;4934020;29;20653;-71
2023/04/27 08:36:55;;;;;;;9.70;4.63;;;13.50;99.90;;;;;;4935069;29;20630;-72
2023/04/27 08:39:23;;;;;;;11.97;5.10;;;13.80;99.90;;;;;;4935000;29;20222;-70
2023/04/27 08:41:50;;;;;;;8.17;4.17;;;13.90;99.90;;;;;;4919061;29;20198;-70
2023/04/27 08:44:18;;;;;;;8.70;4.00;;;13.00;99.90;;;;;;4936379;29;20282;-71
2023/04/27 08:46:45;;;;;;;10.77;4.27;;;12.90;99.90;;;;;;4936317;29;20274;-71
2023/04/27 08:49:12;;;;;;;8.47;4.77;;;12.70;99.90;;;;;;4935139;29;20195;-70
2023/04/27 08:51:43;;;;;;;9.70;4.97;;;12.40;99.90;;;;;;4936099;29;20653;-73
2023/04/27 08:54:10;;;;;;;10.33;4.77;;;12.00;99.90;;;;;;4951100;29;20218;-71
2023/04/27 08:56:37;;;;;;;9.27;4.57;;;11.90;99.90;;;;;;4934593;29;20609;-71
2023/04/27 08:59:16;;;;;;;7.83;4.70;;;11.30;99.90;;;;;;4935111;29;20202;-71
2023/04/27 09:01:45;;;;;;;8.77;4.70;;;10.90;99.90;;;;;;4934778;29;20194;-70
2023/04/27 09:04:13;;;;;;;11.50;4.87;;;11.20;99.90;;;;;;4934386;29;20237;-70
2023/04/27 09:06:40;;;;;;;10.63;5.30;;;11.20;99.90;;;;;;4918799;29;20194;-73
2023/04/27 09:09:07;;;;;;;10.33;5.47;;;11.60;99.90;;;;;;4950426;29;20199;-68
2023/04/27 09:11:36;;;;;;;12.13;5.53;;;11.50;99.90;;;;;;4950444;29;20586;-71
2023/04/27 09:14:17;;;;;;;10.37;4.70;;;11.70;99.90;;;;;;4934436;29;20680;-71
2023/04/27 09:16:44;;;;;;;7.93;4.27;;;12.70;99.90;;;;;;4914866;29;20238;-69
2023/04/27 09:19:11;;;;;;;10.03;4.37;;;13.20;99.90;;;;;;4934381;29;20234;-70
2023/04/27 09:21:38;;;;;;;5.97;3.77;;;13.20;99.90;;;;;;4935661;29;20285;-69
2023/04/27 09:24:12;;;;;;;7.63;3.53;;;13.40;99.90;;;;;;4936170;29;20221;-69
2023/04/27 09:26:42;;;;;;;8.03;3.87;;;13.20;99.90;;;;;;4933811;29;20198;-68
2023/04/27 09:29:09;;;;;;;6.63;3.60;;;13.30;99.90;;;;;;4934171;29;20663;-70
2023/04/27 09:31:36;;;;;;;7.97;3.63;;;13.10;99.90;;;;;;4935642;29;20218;-70
2023/04/27 09:34:04;;;;;;;9.30;4.23;;;12.70;99.90;;;;;;4935413;29;20266;-70
2023/04/27 09:36:31;;;;;;;6.67;3.83;;;12.20;99.90;;;;;;4935538;29;20219;-69
2023/04/27 09:39:03;;;;;;;5.80;3.70;;;12.00;99.90;;;;;;4933761;29;20210;-71
2023/04/27 09:41:31;;;;;;;7.57;3.27;;;11.40;99.90;;;;;;4934068;29;20198;-70
2023/04/27 09:43:59;;;;;;;7.60;3.30;;;11.00;99.90;;;;;;4933800;29;20187;-69
2023/04/27 09:46:28;;;;;;;7.20;3.63;;;10.80;99.90;;;;;;4934813;29;20716;-70
2023/04/27 09:48:56;;;;;;;6.80;3.60;;;10.90;99.90;;;;;;4934056;29;20294;-70
2023/04/27 09:51:23;;;;;;;6.30;3.73;;;10.90;99.90;;;;;;4933901;29;20199;-71
2023/04/27 09:53:56;;;;;;;7.17;4.07;;;11.10;99.90;;;;;;4933947;29;20250;-70
2023/04/27 09:56:52;;;;;;;7.53;3.83;;;11.20;99.90;;;;;;4933747;29;20214;-71
2023/04/27 09:59:25;;;;;;;8.23;4.20;;;11.50;99.90;;;;;;4933907;29;21047;-70
2023/04/27 10:01:59;;;;;;;7.13;3.50;;;11.30;99.90;;;;;;4933615;29;20234;-70
2023/04/27 10:05:02;;;;;;;4.97;3.67;;;11.10;99.90;;;;;;4934931;29;20258;-69
2023/04/27 10:07:30;;;;;;;6.50;3.70;;;10.60;99.90;;;;;;4913371;29;20249;-72
2023/04/27 10:10:01;;;;;;;5.90;3.73;;;10.30;99.90;;;;;;4934926;29;20217;-71
2023/04/27 10:12:35;;;;;;;8.33;3.63;;;10.00;99.90;;;;;;4933598;29;20198;-71
2023/04/27 10:15:14;;;;;;;10.70;4.10;;;9.70;99.90;;;;;;4917503;29;20229;-70
2023/04/27 10:17:57;;;;;;;7.67;4.03;;;9.40;99.90;;;;;;4933260;29;20233;-72
2023/04/27 10:20:31;;;;;;;7.70;3.80;;;9.40;99.90;;;;;;4933979;29;20556;-70
2023/04/27 10:22:59;;;;;;;4.10;2.30;;;9.40;99.90;;;;;;4933127;29;20667;-71
2023/04/27 10:25:37;;;;;;;4.27;2.07;;;9.30;99.90;;;;;;4934744;29;20223;-70
2023/04/27 10:28:06;;;;;;;4.37;1.80;;;9.10;99.90;;;;;;4932836;29;20634;-72
2023/04/27 10:30:37;;;;;;;5.17;1.70;;;8.90;99.90;;;;;;4932117;29;20293;-71
2023/04/27 10:33:07;;;;;;;6.60;1.40;;;8.80;99.90;;;;;;4933337;29;20260;-71
2023/04/27 10:35:42;;;;;;;3.63;1.10;;;8.70;99.90;;;;;;4949024;29;20199;-71
2023/04/27 10:38:17;;;;;;;3.63;1.50;;;8.80;99.90;;;;;;4933276;29;20343;-70
2023/04/27 10:40:52;;;;;;;5.17;2.47;;;8.80;99.90;;;;;;4917209;29;20199;-71
2023/04/27 10:43:25;;;;;;;3.83;2.00;;;8.80;99.90;;;;;;4920822;29;20597;-72
2023/04/27 10:45:52;;;;;;;6.20;2.00;;;8.40;99.90;;;;;;4933150;29;20655;-70
2023/04/27 10:48:19;;;;;;;3.73;2.07;;;8.40;99.90;;;;;;4934272;29;20208;-73
2023/04/27 10:50:46;;;;;;;3.67;2.03;;;8.50;99.90;;;;;;4934367;29;20262;-71
2023/04/27 10:53:14;;;;;;;3.17;1.90;;;8.70;99.90;;;;;;4948789;29;20195;-72
2023/04/27 10:55:41;;;;;;;5.97;2.20;;;8.80;99.90;;;;;;4934044;29;20652;-71
2023/04/27 10:58:08;;;;;;;3.97;1.90;;;8.90;99.90;;;;;;4934340;29;20242;-71
2023/04/27 11:00:43;;;;;;;3.30;2.10;;;8.90;99.90;;;;;;4934052;29;20201;-72
2023/04/27 11:03:17;;;;;;;3.70;2.00;;;9.00;99.90;;;;;;4949331;29;20237;-70
2023/04/27 11:05:46;;;;;;;5.97;2.30;;;9.10;99.90;;;;;;4932782;29;20309;-68
2023/04/27 11:08:15;;;;;;;2.80;2.20;;;9.30;99.90;;;;;;4933278;29;20203;-74
2023/04/27 11:10:48;;;;;;;4.50;2.20;;;9.40;99.90;;;;;;4933221;29;20206;-76
2023/04/27 11:13:21;;;;;;;4.13;2.50;;;9.70;99.90;;;;;;4933965;29;20205;-78
2023/04/27 11:15:50;;;;;;;6.10;3.10;;;10.00;99.90;;;;;;4933880;29;20199;-73
2023/04/27 11:18:18;;;;;;;5.90;3.33;;;10.20;99.90;;;;;;4933933;29;20239;-75
2023/04/27 11:20:50;;;;;;;4.63;3.30;;;10.40;99.90;;;;;;4934302;29;20199;-75
2023/04/27 11:23:29;;;;;;;6.57;3.90;;;10.70;99.90;;;;;;4932550;29;20191;-76
2023/04/27 11:25:56;;;;;;;7.43;4.37;;;10.80;99.90;;;;;;4933992;29;21174;-75
2023/04/27 11:28:23;;;;;;;7.70;4.07;;;11.00;99.90;;;;;;4917153;29;20206;-78
2023/04/27 11:30:59;;;;;;;9.30;4.80;;;11.40;99.90;;;;;;4933691;29;20203;-75
2023/04/27 11:33:27;;;;;;;6.77;4.40;;;11.70;99.90;;;;;;4917205;29;20554;-78
2023/04/27 11:35:55;;;;;;;5.80;3.70;;;12.20;99.90;;;;;;4917029;29;20210;-74
2023/04/27 11:38:22;;;;;;;7.27;3.00;;;12.30;99.90;;;;;;4933764;29;20203;-70
2023/04/27 11:41:06;;;;;;;5.67;2.50;;;12.20;99.90;;;;;;4917026;29;20742;-73
2023/04/27 11:43:34;;;;;;;7.03;2.40;;;12.60;99.90;;;;;;4917163;29;20209;-76
2023/04/27 11:46:05;;;;;;;4.93;2.30;;;12.70;99.90;;;;;;4916865;29;20246;-71
2023/04/27 11:48:38;;;;;;;6.43;2.50;;;13.30;99.90;;;;;;4932597;29;20229;-71
2023/04/27 11:51:06;;;;;;;5.07;2.10;;;13.40;97.00;;;;;;4916868;29;20214;-71
2023/04/27 11:53:38;;;;;;;5.33;2.70;;;13.50;94.00;;;;;;4917072;29;20198;-70
2023/04/27 11:56:09;;;;;;;4.27;2.70;;;13.10;93.70;;;;;;4933594;29;20604;-71
2023/04/27 11:58:38;;;;;;;4.63;2.33;;;13.30;94.20;;;;;;4926456;29;20210;-70
2023/04/27 12:01:06;;;;;;;5.27;2.43;;;13.60;93.30;;;;;;4925662;29;20195;-75
2023/04/27 12:03:33;;;;;;;5.40;2.80;;;14.10;93.80;;;;;;4933832;29;20195;-70
2023/04/27 12:06:01;;;;;;;5.37;2.83;;;14.70;91.90;;;;;;4932423;29;20227;-74
2023/04/27 12:08:31;;;;;;;6.80;3.00;;;15.10;94.00;;;;;;4932783;29;20199;-69
2023/04/27 12:10:58;;;;;;;5.53;2.87;;;14.80;89.60;;;;;;4935844;29;20209;-67
2023/04/27 12:13:24;;;;;;;4.57;2.57;;;14.70;90.70;;;;;;4935333;29;20195;-68
2023/04/27 12:15:51;;;;;;;6.90;2.40;;;14.50;88.80;;;;;;4935743;29;20291;-71
2023/04/27 12:18:18;;;;;;;3.97;2.47;;;14.60;93.60;;;;;;4935758;29;20198;-69
2023/04/27 12:20:46;;;;;;;7.17;3.27;;;14.40;90.80;;;;;;4936866;29;20201;-70
2023/04/27 12:23:13;;;;;;;4.13;2.67;;;13.80;90.00;;;;;;4935869;29;20552;-70
2023/04/27 12:25:42;;;;;;;5.70;3.00;;;13.20;90.90;;;;;;4951329;29;20204;-70
2023/04/27 12:28:11;;;;;;;6.07;3.00;;;12.70;93.50;;;;;;4951312;29;20194;-73
2023/04/27 12:30:37;;;;;;;6.07;3.00;;;12.90;93.70;;;;;;4935649;29;20290;-71
2023/04/27 12:33:09;;;;;;;6.90;2.90;;;12.70;93.60;;;;;;4935926;29;20607;-72
2023/04/27 12:35:37;;;;;;;7.00;3.10;;;12.80;94.50;;;;;;4934989;29;20696;-76
2023/04/27 12:38:03;;;;;;;6.03;3.00;;;12.90;93.80;;;;;;4934901;29;20310;-73
2023/04/27 12:40:30;;;;;;;4.87;2.37;;;12.80;94.10;;;;;;4935270;29;20206;-73
2023/04/27 12:42:58;;;;;;;7.77;2.40;;;12.90;93.80;;;;;;4935129;29;20194;-70
2023/04/27 12:45:27;;;;;;;7.40;2.10;;;13.00;93.90;;;;;;4936659;29;20258;-71
2023/04/27 12:47:53;;;;;;;4.30;2.20;;;13.20;93.20;;;;;;4935165;29;20202;-72
2023/04/27 12:50:32;;;;;;;7.30;2.50;;;12.80;90.80;;;;;;4935941;29;20210;-75
2023/04/27 12:52:59;;;;;;;4.13;2.20;;;13.00;92.10;;;;;;4935474;29;20199;-74